createdAt,value
2023-05-19T00:04:07.708Z,5.20
2023-05-19T00:09:13.377Z,5.00
2023-05-19T00:14:17.923Z,5.07
2023-05-19T00:19:24.536Z,4.70
2023-05-19T00:24:28.671Z,4.90
2023-05-19T00:29:32.094Z,4.72
2023-05-19T00:34:36.905Z,4.30
2023-05-19T00:39:40.664Z,4.95
2023-05-19T00:44:44.216Z,4.57
2023-05-19T00:49:49.340Z,4.32
2023-05-19T00:54:53.525Z,3.90
2023-05-19T00:59:57.532Z,3.97
2023-05-19T01:05:03.484Z,3.78
2023-05-19T01:10:08.219Z,3.88
2023-05-19T01:15:13.815Z,3.83
2023-05-19T01:20:29.133Z,3.80
2023-05-19T01:26:13.712Z,3.45
2023-05-19T01:31:20.631Z,3.25
2023-05-19T01:36:28.021Z,3.40
2023-05-19T01:41:38.632Z,3.45
2023-05-19T01:46:44.405Z,3.38
2023-05-19T01:51:51.622Z,3.37
2023-05-19T01:57:11.741Z,3.00
2023-05-19T02:02:35.768Z,3.63
2023-05-19T02:07:46.679Z,3.00
2023-05-19T02:12:55.090Z,3.17
2023-05-19T02:18:04.592Z,2.72
2023-05-19T02:23:08.277Z,2.80
2023-05-19T02:28:11.803Z,3.10
2023-05-19T02:33:17.379Z,2.58
2023-05-19T02:38:21.552Z,2.60
2023-05-19T02:43:25.006Z,2.47
2023-05-19T02:48:29.806Z,2.60
2023-05-19T02:53:33.883Z,2.72
2023-05-19T02:58:37.317Z,2.50
2023-05-19T03:03:42.302Z,2.40
2023-05-19T03:08:46.049Z,2.50
2023-05-19T03:13:49.594Z,2.60
2023-05-19T03:18:55.615Z,2.40
2023-05-19T03:23:59.267Z,2.10
2023-05-19T03:29:02.723Z,2.30
2023-05-19T03:34:09.952Z,2.30
2023-05-19T03:39:13.818Z,2.15
2023-05-19T03:44:17.879Z,1.92
2023-05-19T03:49:23.026Z,2.25
2023-05-19T03:55:04.829Z,1.88
2023-05-19T04:00:11.245Z,1.85
2023-05-19T04:05:17.862Z,1.80
2023-05-19T04:10:21.650Z,1.88
2023-05-19T04:15:28.021Z,1.90
2023-05-19T04:20:33.504Z,1.70
2023-05-19T04:25:37.442Z,1.70
2023-05-19T04:30:42.546Z,1.90
2023-05-19T04:35:47.396Z,1.70
2023-05-19T04:40:52.821Z,1.60
2023-05-19T04:45:58.163Z,1.70
2023-05-19T04:51:04.075Z,1.58
2023-05-19T04:56:08.479Z,1.63
2023-05-19T05:01:13.879Z,1.70
2023-05-19T05:06:18.820Z,1.80
2023-05-19T05:11:28.227Z,1.70
2023-05-19T05:16:34.132Z,1.70
2023-05-19T05:21:41.482Z,1.65
2023-05-19T05:26:46.925Z,1.70
2023-05-19T05:31:50.431Z,1.67
2023-05-19T05:36:55.848Z,1.60
2023-05-19T05:41:59.473Z,1.50
2023-05-19T05:47:05.422Z,1.55
2023-05-19T05:52:13.634Z,1.80
2023-05-19T05:57:23.149Z,1.60
2023-05-19T06:02:27.764Z,1.40
2023-05-19T06:07:35.063Z,1.60
2023-05-19T06:12:40.663Z,1.40
2023-05-19T06:17:44.795Z,1.65
2023-05-19T06:22:51.158Z,1.40
2023-05-19T06:27:57.042Z,1.30
2023-05-19T06:33:00.960Z,1.60
2023-05-19T06:38:06.271Z,1.48
2023-05-19T06:43:09.871Z,1.30
2023-05-19T06:48:30.662Z,1.38
2023-05-19T06:53:36.922Z,3.35
2023-05-19T06:58:44.407Z,2.80
2023-05-19T07:03:48.943Z,2.40
2023-05-19T07:08:53.942Z,2.40
2023-05-19T07:13:58.222Z,2.67
2023-05-19T07:19:04.944Z,2.15
2023-05-19T07:24:10.909Z,2.70
2023-05-19T07:29:14.470Z,2.58
2023-05-19T07:34:17.884Z,2.80
2023-05-19T07:39:23.566Z,2.40
2023-05-19T07:44:27.188Z,2.25
2023-05-19T07:49:30.689Z,2.38
2023-05-19T07:54:35.451Z,2.10
2023-05-19T07:59:38.952Z,2.20
2023-05-19T08:04:42.725Z,2.58
2023-05-19T08:09:47.604Z,2.30
2023-05-19T08:14:51.189Z,1.90
2023-05-19T08:19:54.708Z,2.10
2023-05-19T08:24:59.876Z,2.20
2023-05-19T08:30:03.415Z,2.13
2023-05-19T08:35:08.440Z,2.05
2023-05-19T08:40:18.849Z,2.30
2023-05-19T08:45:22.348Z,1.90
2023-05-19T08:50:32.359Z,2.05
2023-05-19T08:55:47.891Z,2.10
2023-05-19T09:00:52.235Z,2.28
2023-05-19T09:05:55.819Z,2.28
2023-05-19T09:11:00.679Z,2.33
2023-05-19T09:16:04.912Z,2.17
2023-05-19T09:21:10.321Z,2.20
2023-05-19T09:26:17.121Z,2.30
2023-05-19T09:31:22.573Z,1.98
2023-05-19T09:36:26.035Z,2.13
2023-05-19T09:41:31.215Z,2.30
2023-05-19T09:46:35.946Z,2.20
2023-05-19T09:51:39.479Z,2.15
2023-05-19T09:56:44.307Z,2.15
2023-05-19T10:01:48.547Z,2.03
2023-05-19T10:06:54.400Z,2.10
2023-05-19T10:12:00.687Z,1.95
2023-05-19T10:17:04.589Z,2.00
2023-05-19T10:22:10.816Z,2.00
2023-05-19T10:27:16.725Z,2.20
2023-05-19T10:32:26.236Z,1.88
2023-05-19T10:37:43.119Z,1.77
2023-05-19T10:43:07.447Z,2.10
2023-05-19T10:48:13.345Z,1.90
2023-05-19T10:53:21.036Z,2.15
2023-05-19T11:03:57.315Z,2.10
2023-05-19T11:09:11.491Z,2.00
2023-05-19T11:14:18.693Z,1.83
2023-05-19T11:19:28.692Z,1.95
2023-05-19T11:24:36.988Z,2.00
2023-05-19T11:29:42.656Z,1.98
2023-05-19T11:34:46.726Z,2.15
2023-05-19T11:39:50.803Z,3.80
2023-05-19T11:44:57.957Z,9.82
2023-05-19T11:50:01.805Z,19.03
2023-05-19T11:55:08.587Z,20.48
2023-05-19T12:00:15.684Z,18.75
2023-05-19T12:05:24.963Z,17.30
2023-05-19T12:10:31.413Z,15.18
2023-05-19T12:15:36.534Z,11.98
2023-05-19T12:20:40.157Z,10.45
2023-05-19T12:25:43.739Z,8.40
2023-05-19T12:30:54.462Z,6.47
2023-05-19T12:35:58.355Z,5.40
2023-05-19T12:41:01.791Z,4.07
2023-05-19T12:46:13.521Z,3.90
2023-05-19T12:51:21.113Z,3.30
2023-05-19T12:56:28.109Z,2.97
2023-05-19T13:01:32.992Z,2.72
2023-05-19T13:06:36.524Z,2.80
2023-05-19T13:11:40.420Z,2.50
2023-05-19T13:16:46.243Z,2.13
2023-05-19T13:21:52.425Z,2.28
2023-05-19T13:26:58.164Z,1.83
2023-05-19T13:32:02.938Z,2.22
2023-05-19T13:37:10.016Z,1.90
2023-05-19T13:42:13.983Z,1.88
2023-05-19T13:47:18.853Z,1.75
2023-05-19T13:52:23.133Z,1.65
2023-05-19T13:57:26.893Z,1.67
2023-05-19T14:02:43.140Z,1.60
2023-05-19T14:13:57.526Z,1.60
2023-05-19T14:20:58.096Z,1.58
2023-05-19T14:37:55.353Z,1.48
2023-05-19T14:43:00.555Z,1.60
2023-05-19T14:48:04.074Z,1.80
2023-05-19T14:53:07.548Z,1.65
2023-05-19T14:58:26.971Z,1.20
2023-05-19T15:03:31.526Z,1.38
2023-05-19T15:08:35.005Z,1.20
2023-05-19T15:13:39.837Z,1.40
2023-05-19T15:18:43.249Z,1.45
2023-05-19T15:23:46.991Z,1.50
2023-05-19T15:28:53.589Z,1.40
2023-05-19T15:33:56.985Z,1.38
2023-05-19T15:39:00.522Z,1.35
2023-05-19T15:44:06.782Z,1.75
2023-05-19T15:49:12.961Z,1.90
2023-05-19T15:54:16.685Z,2.30
2023-05-19T15:59:21.460Z,2.00
2023-05-19T16:04:24.890Z,2.08
2023-05-19T16:09:28.346Z,3.03
2023-05-19T16:14:36.353Z,6.05
2023-05-19T16:19:39.795Z,4.85
2023-05-19T16:24:43.665Z,4.97
2023-05-19T16:29:48.828Z,4.13
2023-05-19T16:34:52.445Z,3.50
2023-05-19T16:39:55.963Z,3.30
2023-05-19T16:45:18.613Z,3.20
2023-05-19T16:50:23.425Z,3.03
2023-05-19T16:55:27.178Z,2.70
2023-05-19T17:00:32.474Z,2.47
2023-05-19T17:05:38.205Z,2.40
2023-05-19T17:10:41.674Z,2.03
2023-05-19T17:16:02.277Z,2.40
2023-05-19T17:21:06.373Z,2.35
2023-05-19T17:26:12.046Z,2.10
2023-05-19T17:31:17.116Z,2.03
2023-05-19T17:36:20.606Z,1.88
2023-05-19T17:41:24.079Z,1.70
2023-05-19T17:46:30.256Z,1.70
2023-05-19T17:51:34.319Z,1.80
2023-05-19T17:56:43.607Z,1.60
2023-05-19T18:01:49.173Z,1.52
2023-05-19T18:06:53.983Z,1.60
2023-05-19T18:12:01.952Z,1.40
2023-05-19T18:17:07.225Z,1.70
2023-05-19T18:22:14.859Z,1.50
2023-05-19T18:27:18.273Z,1.60
2023-05-19T18:32:23.123Z,1.63
2023-05-19T18:37:26.627Z,1.58
2023-05-19T18:42:30.134Z,1.90
2023-05-19T18:47:34.998Z,1.40
2023-05-19T18:52:38.464Z,1.60
2023-05-19T18:57:41.886Z,1.55
2023-05-19T19:02:46.865Z,1.77
2023-05-19T19:07:50.333Z,1.63
2023-05-19T19:12:53.838Z,1.60
2023-05-19T19:17:58.669Z,1.48
2023-05-19T19:23:05.089Z,1.60
2023-05-19T19:28:08.544Z,1.50
2023-05-19T19:33:13.403Z,1.60
2023-05-19T19:38:16.918Z,1.58
2023-05-19T19:43:20.604Z,1.52
2023-05-19T19:48:25.531Z,1.30
2023-05-19T19:53:29.094Z,1.17
2023-05-19T19:58:32.509Z,1.33
2023-05-19T20:03:38.166Z,1.38
2023-05-19T20:08:41.687Z,1.08
2023-05-19T20:13:45.155Z,1.40
2023-05-19T20:18:50.573Z,1.30
2023-05-19T20:23:54.106Z,1.00
2023-05-19T20:28:57.567Z,1.10
2023-05-19T20:34:02.417Z,1.20
2023-05-19T20:39:07.015Z,1.10
2023-05-19T20:44:11.651Z,1.10
2023-05-19T20:49:16.682Z,1.10
2023-05-19T20:54:20.623Z,1.00
2023-05-19T20:59:24.171Z,1.20
2023-05-19T21:04:29.042Z,0.90
2023-05-19T21:09:32.506Z,1.08
2023-05-19T21:14:35.946Z,1.10
2023-05-19T21:19:40.810Z,1.00
2023-05-19T21:24:44.186Z,1.25
2023-05-19T21:29:47.722Z,1.00
2023-05-19T21:34:52.558Z,1.10
2023-05-19T21:39:55.967Z,1.00
2023-05-19T21:44:59.397Z,1.00
2023-05-19T21:50:04.450Z,1.10
2023-05-19T21:55:11.075Z,1.00
2023-05-19T22:00:15.995Z,1.10
2023-05-19T22:05:20.831Z,1.10
2023-05-19T22:10:25.572Z,1.10
2023-05-19T22:15:39.771Z,1.10
2023-05-19T22:20:44.648Z,1.00
2023-05-19T22:25:48.105Z,1.10
2023-05-19T22:30:51.492Z,1.00
2023-05-19T22:35:56.254Z,1.15
2023-05-19T22:40:59.706Z,0.90
2023-05-19T22:46:03.154Z,1.20
2023-05-19T22:51:08.102Z,0.90
2023-05-19T22:56:11.519Z,1.00
2023-05-19T23:01:15.025Z,0.98
2023-05-19T23:06:19.878Z,0.80
2023-05-19T23:11:23.291Z,0.93
2023-05-19T23:16:26.719Z,0.80
2023-05-19T23:21:32.477Z,0.85
2023-05-19T23:26:35.942Z,0.98
2023-05-19T23:31:39.480Z,0.85
2023-05-19T23:36:44.293Z,0.70
2023-05-19T23:41:47.711Z,0.70
2023-05-19T23:46:51.388Z,0.90
2023-05-19T23:51:56.310Z,0.77
2023-05-19T23:56:59.755Z,0.60
